createdAt,value
2022-09-10T00:00:23.136Z,9
2022-09-10T00:01:23.137Z,13.3
2022-09-10T00:02:23.140Z,15.4
2022-09-10T00:03:23.135Z,8.8
2022-09-10T00:04:23.137Z,10.4
2022-09-10T00:05:23.146Z,11.200000000000001
2022-09-10T00:06:23.174Z,7.300000000000001
2022-09-10T00:07:23.145Z,9.8
2022-09-10T00:08:23.140Z,12.8
2022-09-10T00:09:23.139Z,11.200000000000001
2022-09-10T00:10:23.148Z,6.5
2022-09-10T00:11:23.146Z,10
2022-09-10T00:12:23.150Z,11.4
2022-09-10T00:13:23.146Z,9.4
2022-09-10T00:14:23.148Z,7
2022-09-10T00:15:23.145Z,7.800000000000001
2022-09-10T00:16:23.176Z,9.3
2022-09-10T00:17:23.151Z,8.8
2022-09-10T00:18:23.150Z,3.2
2022-09-10T00:19:23.155Z,8.1
2022-09-10T00:20:23.160Z,3.1
2022-09-10T00:21:23.153Z,3
2022-09-10T00:22:23.174Z,4
2022-09-10T00:23:23.148Z,4.7
2022-09-10T00:24:23.149Z,3.5
2022-09-10T00:25:23.154Z,5.2
2022-09-10T00:26:23.151Z,4.5
2022-09-10T00:27:23.153Z,4.5
2022-09-10T00:28:23.149Z,4
2022-09-10T00:29:23.156Z,10.9
2022-09-10T00:30:23.161Z,9.600000000000001
2022-09-10T00:31:23.177Z,4.7
2022-09-10T00:32:23.152Z,6.1000000000000005
2022-09-10T00:33:23.161Z,9.8
2022-09-10T00:34:23.156Z,7.2
2022-09-10T00:35:23.156Z,5.7
2022-09-10T00:36:23.152Z,6.4
2022-09-10T00:37:23.166Z,10.4
2022-09-10T00:38:23.183Z,10.200000000000001
2022-09-10T00:39:23.163Z,6.9
2022-09-10T00:40:23.172Z,5.2
2022-09-10T00:41:23.175Z,5.6000000000000005
2022-09-10T00:42:23.166Z,2.1
2022-09-10T00:43:23.222Z,0.5
2022-09-10T00:44:23.170Z,0.30000000000000004
2022-09-10T00:45:23.195Z,0
2022-09-10T00:46:23.176Z,0
2022-09-10T00:47:23.167Z,0
2022-09-10T00:48:23.161Z,0
2022-09-10T00:49:23.168Z,2.3000000000000003
2022-09-10T00:50:23.168Z,3.6
2022-09-10T00:51:23.172Z,4.4
2022-09-10T00:52:23.174Z,4.9
2022-09-10T00:53:23.170Z,2.9000000000000004
2022-09-10T00:54:23.199Z,2.6
2022-09-10T00:55:23.175Z,2.9000000000000004
2022-09-10T00:56:23.174Z,3.2
2022-09-10T00:57:23.176Z,4.6000000000000005
2022-09-10T00:58:23.180Z,3.1
2022-09-10T00:59:23.178Z,4.6000000000000005
2022-09-10T01:00:23.185Z,3.5
2022-09-10T01:01:23.178Z,0.6000000000000001
2022-09-10T01:02:23.174Z,0
2022-09-10T01:03:25.511Z,0
2022-09-10T01:04:23.192Z,1.7000000000000002
2022-09-10T01:05:23.184Z,1.8
2022-09-10T01:06:23.199Z,1.3
2022-09-10T01:07:23.188Z,3.5
2022-09-10T01:08:23.185Z,3.7
2022-09-10T01:09:23.190Z,2.6
2022-09-10T01:10:23.205Z,2.9000000000000004
2022-09-10T01:11:23.187Z,3.1
2022-09-10T01:12:23.199Z,1.8
2022-09-10T01:13:23.189Z,0
2022-09-10T01:14:23.191Z,0
2022-09-10T01:15:23.195Z,0
2022-09-10T01:16:23.244Z,0
2022-09-10T01:17:23.193Z,0
2022-09-10T01:18:23.189Z,0
2022-09-10T01:19:23.192Z,0
2022-09-10T01:20:23.194Z,0
2022-09-10T01:21:23.195Z,2.7
2022-09-10T01:22:23.201Z,4.1000000000000005
2022-09-10T01:23:23.196Z,1.1
2022-09-10T01:24:23.200Z,0.7000000000000001
2022-09-10T01:25:23.197Z,2.3000000000000003
2022-09-10T01:26:23.222Z,3.5
2022-09-10T01:27:23.207Z,1.1
2022-09-10T01:28:23.197Z,1.8
2022-09-10T01:29:23.202Z,0
2022-09-10T01:30:23.206Z,0
2022-09-10T01:31:23.212Z,0
2022-09-10T01:32:23.217Z,0
2022-09-10T01:33:23.200Z,0
2022-09-10T01:34:23.203Z,0
2022-09-10T01:35:23.213Z,0
2022-09-10T01:36:23.207Z,0
2022-09-10T01:37:23.201Z,0
2022-09-10T01:38:23.199Z,0
2022-09-10T01:39:23.208Z,0
2022-09-10T01:40:23.206Z,0
2022-09-10T01:41:23.213Z,0
2022-09-10T01:42:23.264Z,0
2022-09-10T01:43:23.204Z,0
2022-09-10T01:44:23.209Z,0
2022-09-10T01:45:23.289Z,0
2022-09-10T01:46:23.214Z,0
2022-09-10T01:47:23.210Z,0
2022-09-10T01:48:23.212Z,0
2022-09-10T01:49:23.208Z,0
2022-09-10T01:50:23.219Z,3
2022-09-10T01:51:23.212Z,3.2
2022-09-10T01:52:23.210Z,4.6000000000000005
2022-09-10T01:53:23.209Z,6.1000000000000005
2022-09-10T01:54:23.210Z,4.3
2022-09-10T01:55:23.213Z,3.4000000000000004
2022-09-10T01:56:23.215Z,5
2022-09-10T01:57:23.218Z,4.800000000000001
2022-09-10T01:58:23.239Z,4.6000000000000005
2022-09-10T01:59:23.224Z,4
2022-09-10T02:00:23.219Z,5.300000000000001
2022-09-10T02:01:23.240Z,2.9000000000000004
2022-09-10T02:02:23.249Z,4.9
2022-09-10T02:03:23.218Z,3.1
2022-09-10T02:04:23.212Z,4.800000000000001
2022-09-10T02:05:23.218Z,6
2022-09-10T02:06:23.221Z,5.800000000000001
2022-09-10T02:07:23.216Z,7.4
2022-09-10T02:08:23.229Z,5.300000000000001
2022-09-10T02:09:23.225Z,4.4
2022-09-10T02:10:23.225Z,3.9000000000000004
2022-09-10T02:11:23.213Z,2.9000000000000004
2022-09-10T02:12:23.214Z,5
2022-09-10T02:13:23.219Z,3
2022-09-10T02:14:23.247Z,2.4000000000000004
2022-09-10T02:15:23.217Z,1.6
2022-09-10T02:16:23.252Z,2.7
2022-09-10T02:17:23.215Z,4
2022-09-10T02:18:23.222Z,4.800000000000001
2022-09-10T02:19:23.215Z,1.7000000000000002
2022-09-10T02:20:23.218Z,1.9000000000000001
2022-09-10T02:21:23.216Z,3
2022-09-10T02:22:23.221Z,1
2022-09-10T02:23:23.217Z,2.1
2022-09-10T02:24:23.222Z,0.7000000000000001
2022-09-10T02:25:23.221Z,0.5
2022-09-10T02:26:23.224Z,0
2022-09-10T02:27:23.219Z,0
2022-09-10T02:28:23.221Z,0
2022-09-10T02:29:23.239Z,0
2022-09-10T02:30:23.258Z,0
2022-09-10T02:31:23.266Z,0
2022-09-10T02:32:23.227Z,0
2022-09-10T02:33:23.228Z,0
2022-09-10T02:34:23.229Z,0
2022-09-10T02:35:23.231Z,0
2022-09-10T02:36:23.236Z,0
2022-09-10T02:37:23.230Z,0
2022-09-10T02:38:23.240Z,0
2022-09-10T02:39:23.239Z,0
2022-09-10T02:40:23.237Z,0
2022-09-10T02:41:23.244Z,0
2022-09-10T02:42:23.233Z,0
2022-09-10T02:43:23.238Z,0
2022-09-10T02:44:23.247Z,0
2022-09-10T02:45:23.280Z,0
2022-09-10T02:46:23.268Z,0
2022-09-10T02:47:23.242Z,0
2022-09-10T02:48:23.246Z,0
2022-09-10T02:49:23.240Z,0
2022-09-10T02:50:23.240Z,0
2022-09-10T02:51:23.247Z,0
2022-09-10T02:52:23.236Z,0
2022-09-10T02:53:23.249Z,0
2022-09-10T02:54:23.251Z,0
2022-09-10T02:55:23.244Z,0
2022-09-10T02:56:23.236Z,0
2022-09-10T02:57:23.251Z,0
2022-09-10T02:58:23.249Z,0
2022-09-10T02:59:23.248Z,0
2022-09-10T03:00:23.248Z,0
2022-09-10T03:01:23.300Z,0
2022-09-10T03:02:23.302Z,0
2022-09-10T03:03:23.257Z,0
2022-09-10T03:04:23.253Z,0
2022-09-10T03:05:23.325Z,0
2022-09-10T03:06:23.268Z,0
2022-09-10T03:07:23.272Z,0
2022-09-10T03:08:23.259Z,0
2022-09-10T03:09:23.268Z,0
2022-09-10T03:10:23.262Z,0
2022-09-10T03:11:23.266Z,0
2022-09-10T03:12:23.273Z,0
2022-09-10T03:13:23.264Z,0
2022-09-10T03:14:23.268Z,0
2022-09-10T03:15:23.274Z,0
2022-09-10T03:16:23.293Z,0
2022-09-10T03:17:23.264Z,0
2022-09-10T03:18:23.305Z,0
2022-09-10T03:19:23.272Z,0
2022-09-10T03:20:23.276Z,0
2022-09-10T03:21:23.279Z,0
2022-09-10T03:22:23.272Z,0
2022-09-10T03:23:23.278Z,0
2022-09-10T03:24:23.273Z,0
2022-09-10T03:25:23.277Z,0
2022-09-10T03:26:23.265Z,0
2022-09-10T03:27:23.282Z,0
2022-09-10T03:28:23.273Z,0
2022-09-10T03:29:23.280Z,0
2022-09-10T03:30:23.277Z,0
2022-09-10T03:31:23.305Z,0
2022-09-10T03:32:23.274Z,0
2022-09-10T03:33:23.281Z,0
2022-09-10T03:34:23.307Z,0
2022-09-10T03:35:23.280Z,0
2022-09-10T03:36:23.279Z,0
2022-09-10T03:37:23.283Z,0
2022-09-10T03:38:23.278Z,0
2022-09-10T03:39:23.285Z,0
2022-09-10T03:40:23.281Z,0
2022-09-10T03:41:23.288Z,0
2022-09-10T03:42:23.285Z,0
2022-09-10T03:43:23.285Z,0
2022-09-10T03:44:23.288Z,0
2022-09-10T03:45:23.321Z,0
2022-09-10T03:46:23.284Z,0
2022-09-10T03:47:23.292Z,0
2022-09-10T03:48:23.299Z,0
2022-09-10T03:49:23.306Z,0
2022-09-10T03:50:23.321Z,0
2022-09-10T03:51:23.319Z,0
2022-09-10T03:52:23.298Z,0
2022-09-10T03:53:23.302Z,0
2022-09-10T03:54:23.304Z,0
2022-09-10T03:55:23.313Z,0
2022-09-10T03:56:23.316Z,0
2022-09-10T03:57:23.308Z,0
2022-09-10T03:58:23.305Z,0
2022-09-10T03:59:23.304Z,0
2022-09-10T04:00:23.310Z,0
2022-09-10T04:01:23.331Z,0
2022-09-10T04:02:23.338Z,0
2022-09-10T04:03:23.306Z,0
2022-09-10T04:04:23.310Z,0
2022-09-10T04:05:23.311Z,0
2022-09-10T04:06:23.335Z,0
2022-09-10T04:07:23.308Z,0
2022-09-10T04:08:23.307Z,0
2022-09-10T04:09:23.308Z,0
2022-09-10T04:10:23.313Z,0
2022-09-10T04:11:23.306Z,0
2022-09-10T04:12:23.316Z,0
2022-09-10T04:13:23.307Z,0
2022-09-10T04:14:23.308Z,0
2022-09-10T04:15:23.315Z,0
2022-09-10T04:16:23.384Z,0
2022-09-10T04:17:23.309Z,0
2022-09-10T04:18:23.308Z,0
2022-09-10T04:19:23.315Z,0
2022-09-10T04:20:23.315Z,0
2022-09-10T04:21:23.312Z,0
2022-09-10T04:22:23.336Z,0
2022-09-10T04:23:23.310Z,0
2022-09-10T04:24:23.325Z,0
2022-09-10T04:25:23.323Z,0
2022-09-10T04:26:23.322Z,0
2022-09-10T04:27:23.317Z,0
2022-09-10T04:28:23.318Z,0
2022-09-10T04:29:23.336Z,0
2022-09-10T04:30:23.338Z,0
2022-09-10T04:31:23.392Z,0
2022-09-10T04:32:23.327Z,0
2022-09-10T04:33:23.332Z,0
2022-09-10T04:34:23.332Z,0
2022-09-10T04:35:23.334Z,0
2022-09-10T04:36:23.340Z,0
2022-09-10T04:37:23.334Z,0
2022-09-10T04:38:23.363Z,0
2022-09-10T04:39:23.325Z,0
2022-09-10T04:40:23.335Z,0
2022-09-10T04:41:23.337Z,0
2022-09-10T04:42:23.351Z,0
2022-09-10T04:43:23.342Z,0
2022-09-10T04:44:23.339Z,0
2022-09-10T04:45:23.330Z,0
2022-09-10T04:46:23.337Z,0
2022-09-10T04:47:23.348Z,0
2022-09-10T04:48:23.345Z,0
2022-09-10T04:49:23.340Z,0
2022-09-10T04:50:23.342Z,0
2022-09-10T04:51:23.340Z,0
2022-09-10T04:52:23.344Z,0
2022-09-10T04:53:23.350Z,0
2022-09-10T04:54:23.371Z,0
2022-09-10T04:55:23.342Z,0
2022-09-10T04:56:23.340Z,0
2022-09-10T04:57:23.345Z,0
2022-09-10T04:58:23.343Z,0
2022-09-10T04:59:23.345Z,0
2022-09-10T05:00:23.351Z,0
2022-09-10T05:01:23.406Z,0
2022-09-10T05:02:23.416Z,0
2022-09-10T05:03:23.350Z,0
2022-09-10T05:04:23.353Z,0
2022-09-10T05:05:23.348Z,0
2022-09-10T05:06:23.361Z,0
2022-09-10T05:07:23.349Z,0
2022-09-10T05:08:23.352Z,0
2022-09-10T05:09:23.347Z,0
2022-09-10T05:10:23.386Z,0
2022-09-10T05:11:23.359Z,0
2022-09-10T05:12:23.360Z,0
2022-09-10T05:13:23.352Z,0
2022-09-10T05:14:23.358Z,0
2022-09-10T05:15:23.361Z,0
2022-09-10T05:16:23.417Z,0
2022-09-10T05:17:23.367Z,0
2022-09-10T05:18:23.362Z,0
2022-09-10T05:19:23.366Z,0
2022-09-10T05:20:23.384Z,0
2022-09-10T05:21:23.356Z,0
2022-09-10T05:22:23.364Z,0
2022-09-10T05:23:23.362Z,0
2022-09-10T05:24:23.374Z,0
2022-09-10T05:25:23.360Z,0
2022-09-10T05:26:23.399Z,0
2022-09-10T05:27:23.372Z,0
2022-09-10T05:28:23.384Z,0
2022-09-10T05:29:23.374Z,0
2022-09-10T05:30:23.374Z,0
2022-09-10T05:31:23.407Z,0
2022-09-10T05:32:23.366Z,0
2022-09-10T05:33:23.369Z,0
2022-09-10T05:34:23.420Z,0
2022-09-10T05:35:23.373Z,0
2022-09-10T05:36:23.377Z,0
2022-09-10T05:37:23.373Z,0
2022-09-10T05:38:23.377Z,0
2022-09-10T05:39:23.377Z,0
2022-09-10T05:40:23.377Z,0
2022-09-10T05:41:23.388Z,0
2022-09-10T05:42:23.417Z,0
2022-09-10T05:43:23.391Z,0
2022-09-10T05:44:23.379Z,0
2022-09-10T05:45:23.393Z,0
2022-09-10T05:46:23.393Z,0
2022-09-10T05:47:23.392Z,0
2022-09-10T05:48:23.378Z,0
2022-09-10T05:49:23.395Z,0
2022-09-10T05:50:23.384Z,0
2022-09-10T05:51:23.392Z,0
2022-09-10T05:52:23.379Z,0
2022-09-10T05:53:23.387Z,0
2022-09-10T05:54:23.390Z,0
2022-09-10T05:55:23.400Z,0
2022-09-10T05:56:23.390Z,0
2022-09-10T05:57:23.392Z,0
2022-09-10T05:58:23.411Z,0
2022-09-10T05:59:23.387Z,0
2022-09-10T06:00:23.396Z,0
2022-09-10T06:01:23.392Z,0
2022-09-10T06:02:24.363Z,0
2022-09-10T06:03:23.456Z,0
2022-09-10T06:04:23.391Z,0
2022-09-10T06:05:23.405Z,0
2022-09-10T06:06:23.389Z,0
2022-09-10T06:07:23.402Z,0
2022-09-10T06:08:23.397Z,0
2022-09-10T06:09:23.405Z,0
2022-09-10T06:10:23.395Z,0
2022-09-10T06:11:23.398Z,0
2022-09-10T06:12:23.406Z,0
2022-09-10T06:13:23.401Z,0
2022-09-10T06:14:23.433Z,0
2022-09-10T06:15:23.408Z,0
2022-09-10T06:16:23.461Z,0
2022-09-10T06:17:23.405Z,0
2022-09-10T06:18:23.407Z,0
2022-09-10T06:19:23.411Z,0
2022-09-10T06:20:23.408Z,0
2022-09-10T06:21:27.608Z,0
2022-09-10T06:22:23.403Z,0
2022-09-10T06:23:23.408Z,0
2022-09-10T06:24:23.410Z,0
2022-09-10T06:25:23.411Z,0
2022-09-10T06:26:23.409Z,0
2022-09-10T06:27:23.412Z,0
2022-09-10T06:28:23.415Z,0
2022-09-10T06:29:23.407Z,0
2022-09-10T06:30:23.434Z,0
2022-09-10T06:31:23.410Z,0
2022-09-10T06:32:23.415Z,0
2022-09-10T06:33:23.417Z,0
2022-09-10T06:34:23.426Z,0
2022-09-10T06:35:23.411Z,0
2022-09-10T06:36:23.403Z,0
2022-09-10T06:37:23.412Z,0
2022-09-10T06:38:23.406Z,0
2022-09-10T06:39:23.416Z,0
2022-09-10T06:40:23.410Z,0
2022-09-10T06:41:23.408Z,0
2022-09-10T06:42:23.403Z,0
2022-09-10T06:43:23.418Z,0
2022-09-10T06:44:23.412Z,0
2022-09-10T06:45:23.416Z,0
2022-09-10T06:48:40.599Z,0
2022-09-10T06:49:23.414Z,0
2022-09-10T06:50:23.413Z,0
2022-09-10T06:51:23.418Z,0
2022-09-10T06:52:23.417Z,0
2022-09-10T06:53:23.417Z,0
2022-09-10T06:54:23.416Z,0
2022-09-10T06:55:23.425Z,0
2022-09-10T06:56:23.427Z,0
2022-09-10T06:57:23.420Z,0
2022-09-10T06:58:23.419Z,0
2022-09-10T06:59:23.419Z,0
2022-09-10T07:00:23.422Z,0
2022-09-10T07:01:23.446Z,0
2022-09-10T07:02:23.496Z,0
2022-09-10T07:03:23.423Z,0
2022-09-10T07:04:23.420Z,0
2022-09-10T07:05:23.427Z,0
2022-09-10T07:06:23.425Z,0
2022-09-10T07:07:23.431Z,0
2022-09-10T07:08:23.435Z,0
2022-09-10T07:09:23.432Z,0
2022-09-10T07:10:23.543Z,0
2022-09-10T07:11:23.422Z,0
2022-09-10T07:12:23.424Z,0
2022-09-10T07:13:23.430Z,0
2022-09-10T07:14:23.431Z,0
2022-09-10T07:15:23.428Z,0
2022-09-10T07:16:23.433Z,0
2022-09-10T07:17:23.434Z,0
2022-09-10T07:18:23.467Z,0
2022-09-10T07:19:23.435Z,0
2022-09-10T07:20:23.521Z,0
2022-09-10T07:21:23.435Z,0
2022-09-10T07:22:23.441Z,0
2022-09-10T07:23:23.436Z,0
2022-09-10T07:24:23.436Z,0
2022-09-10T07:25:23.442Z,0
2022-09-10T07:26:23.438Z,0
2022-09-10T07:27:23.438Z,0
2022-09-10T07:28:23.437Z,0
2022-09-10T07:29:23.436Z,0
2022-09-10T07:30:23.441Z,0
2022-09-10T07:31:23.528Z,0
2022-09-10T07:32:23.433Z,0
2022-09-10T07:33:23.444Z,0
2022-09-10T07:34:23.467Z,0
2022-09-10T07:35:23.443Z,0
2022-09-10T07:36:23.458Z,0
2022-09-10T07:37:23.455Z,0
2022-09-10T07:38:23.449Z,0
2022-09-10T07:39:25.657Z,0
2022-09-10T07:40:23.470Z,0
2022-09-10T07:41:23.455Z,0
2022-09-10T07:42:23.454Z,3.4000000000000004
2022-09-10T07:43:23.450Z,2.6
2022-09-10T07:44:23.440Z,0
2022-09-10T07:45:23.462Z,0
2022-09-10T07:46:23.454Z,0
2022-09-10T07:47:23.454Z,0
2022-09-10T07:48:23.449Z,0
2022-09-10T07:49:23.451Z,4
2022-09-10T07:50:23.486Z,5.6000000000000005
2022-09-10T07:51:23.455Z,5.300000000000001
2022-09-10T07:52:23.466Z,1.2000000000000002
2022-09-10T07:53:23.455Z,1.6
2022-09-10T07:54:23.471Z,4.5
2022-09-10T07:55:23.468Z,0
2022-09-10T07:56:23.470Z,0
2022-09-10T07:57:23.460Z,0
2022-09-10T07:58:23.452Z,3
2022-09-10T07:59:23.457Z,1.7000000000000002
2022-09-10T08:00:23.466Z,1.4000000000000001
2022-09-10T08:01:23.471Z,2.7
2022-09-10T08:02:23.547Z,0
2022-09-10T08:03:23.475Z,0
2022-09-10T08:04:23.474Z,0
2022-09-10T08:05:23.463Z,0
2022-09-10T08:06:23.500Z,0
2022-09-10T08:07:23.474Z,3.3000000000000003
2022-09-10T08:08:23.473Z,1.2000000000000002
2022-09-10T08:09:23.475Z,0
2022-09-10T08:10:23.482Z,0
2022-09-10T08:11:23.482Z,0
2022-09-10T08:12:23.475Z,0
2022-09-10T08:13:23.484Z,0
2022-09-10T08:14:23.485Z,0
2022-09-10T08:15:23.482Z,4.9
2022-09-10T08:16:23.482Z,2.7
2022-09-10T08:17:23.481Z,3.1
2022-09-10T08:18:23.493Z,4
2022-09-10T08:19:23.480Z,0
2022-09-10T08:20:23.492Z,0
2022-09-10T08:21:23.492Z,3.7
2022-09-10T08:22:23.518Z,1.7000000000000002
2022-09-10T08:23:23.491Z,9.1
2022-09-10T08:24:23.491Z,6.1000000000000005
2022-09-10T08:25:23.490Z,7.5
2022-09-10T08:26:23.492Z,6.2
2022-09-10T08:27:23.495Z,7.4
2022-09-10T08:28:25.445Z,7.5
2022-09-10T08:29:23.501Z,6.7
2022-09-10T08:30:23.495Z,6.2
2022-09-10T08:31:23.512Z,0
2022-09-10T08:32:23.494Z,2.3000000000000003
2022-09-10T08:33:23.505Z,8.700000000000001
2022-09-10T08:34:23.498Z,1.8
2022-09-10T08:35:23.503Z,4
2022-09-10T08:36:23.508Z,2.1
2022-09-10T08:37:23.500Z,0
2022-09-10T08:38:23.528Z,8.3
2022-09-10T08:39:23.503Z,8.700000000000001
2022-09-10T08:40:23.507Z,4.7
2022-09-10T08:41:23.517Z,4.2
2022-09-10T08:42:23.515Z,0
2022-09-10T08:43:23.516Z,1.8
2022-09-10T08:44:23.511Z,1.5
2022-09-10T08:45:23.512Z,2.4000000000000004
2022-09-10T08:46:23.511Z,1.4000000000000001
2022-09-10T08:47:23.516Z,0
2022-09-10T08:48:23.521Z,2
2022-09-10T08:49:23.513Z,0
2022-09-10T08:50:23.514Z,0
2022-09-10T08:51:23.511Z,0
2022-09-10T08:52:23.517Z,1.5
2022-09-10T08:53:23.516Z,4.6000000000000005
2022-09-10T08:54:23.534Z,4.800000000000001
2022-09-10T08:55:23.523Z,4.5
2022-09-10T08:56:23.521Z,5.9
2022-09-10T08:57:23.524Z,2
2022-09-10T08:58:23.512Z,0
2022-09-10T08:59:23.527Z,0
2022-09-10T09:00:23.527Z,7.300000000000001
2022-09-10T09:01:23.565Z,5.9
2022-09-10T09:02:45.151Z,0
2022-09-10T09:03:23.569Z,5.7
2022-09-10T09:04:23.526Z,5.1000000000000005
2022-09-10T09:05:23.533Z,4.1000000000000005
2022-09-10T09:06:23.521Z,4
2022-09-10T09:07:23.537Z,7.7
2022-09-10T09:08:23.527Z,6.1000000000000005
2022-09-10T09:09:23.532Z,4.5
2022-09-10T09:10:23.551Z,0.5
2022-09-10T09:11:23.530Z,4.6000000000000005
2022-09-10T09:12:23.528Z,3.2
2022-09-10T09:13:23.544Z,7.6000000000000005
2022-09-10T09:14:23.536Z,9.600000000000001
2022-09-10T09:15:23.532Z,6.5
2022-09-10T09:16:23.543Z,6.1000000000000005
2022-09-10T09:17:23.546Z,6.1000000000000005
2022-09-10T09:18:23.545Z,2.5
2022-09-10T09:19:23.552Z,6.1000000000000005
2022-09-10T09:20:23.544Z,2.5
2022-09-10T09:21:23.546Z,1.4000000000000001
2022-09-10T09:22:23.546Z,4.9
2022-09-10T09:23:23.557Z,5
2022-09-10T09:24:23.553Z,0.8
2022-09-10T09:25:23.550Z,5.300000000000001
2022-09-10T09:26:23.568Z,5.6000000000000005
2022-09-10T09:27:23.551Z,6.300000000000001
2022-09-10T09:28:23.557Z,5.6000000000000005
2022-09-10T09:29:23.556Z,3.2
2022-09-10T09:30:23.545Z,8.5
2022-09-10T09:31:23.597Z,8
2022-09-10T09:32:23.559Z,3.9000000000000004
2022-09-10T09:33:23.560Z,6.9
2022-09-10T09:34:23.556Z,9.200000000000001
2022-09-10T09:35:23.557Z,6.300000000000001
2022-09-10T09:36:23.568Z,7.9
2022-09-10T09:37:23.559Z,11
2022-09-10T09:38:23.560Z,11.200000000000001
2022-09-10T09:39:25.562Z,6.6000000000000005
2022-09-10T09:40:23.557Z,6.6000000000000005
2022-09-10T09:41:23.554Z,4.9
2022-09-10T09:42:23.587Z,4.4
2022-09-10T09:43:23.575Z,6.4
2022-09-10T09:44:23.563Z,6.300000000000001
2022-09-10T09:45:23.560Z,7.800000000000001
2022-09-10T09:46:23.568Z,2.7
2022-09-10T09:47:23.569Z,4.9
2022-09-10T09:48:23.566Z,3.4000000000000004
2022-09-10T09:49:23.570Z,4.800000000000001
2022-09-10T09:50:23.571Z,2.7
2022-09-10T09:51:23.564Z,5
2022-09-10T09:52:23.568Z,10.600000000000001
2022-09-10T09:53:23.570Z,4.5
2022-09-10T09:55:23.577Z,6.1000000000000005
2022-09-10T09:56:23.577Z,5.9
2022-09-10T09:57:23.576Z,1.1
2022-09-10T09:58:23.596Z,0
2022-09-10T09:59:23.580Z,7.9
2022-09-10T10:00:23.583Z,0
2022-09-10T10:01:23.678Z,6.1000000000000005
2022-09-10T10:02:23.660Z,4.1000000000000005
2022-09-10T10:03:23.577Z,3.6
2022-09-10T10:04:23.580Z,2.1
2022-09-10T10:05:23.588Z,0
2022-09-10T10:06:23.590Z,6.2
2022-09-10T10:07:23.589Z,6.1000000000000005
2022-09-10T10:08:23.590Z,5.2
2022-09-10T10:09:23.584Z,9.1
2022-09-10T10:10:23.589Z,7.800000000000001
2022-09-10T10:11:23.582Z,6.9
2022-09-10T10:12:23.586Z,5.5
2022-09-10T10:13:23.593Z,7
2022-09-10T10:14:23.623Z,3.4000000000000004
2022-09-10T10:15:23.589Z,6.1000000000000005
2022-09-10T10:16:23.587Z,4.800000000000001
2022-09-10T10:17:23.594Z,3.2
2022-09-10T10:18:23.597Z,3.3000000000000003
2022-09-10T10:19:23.591Z,6.9
2022-09-10T10:20:23.593Z,3.3000000000000003
2022-09-10T10:21:23.594Z,8.1
2022-09-10T10:22:23.597Z,6.300000000000001
2022-09-10T10:23:23.930Z,3.4000000000000004
2022-09-10T10:24:23.597Z,3.7
2022-09-10T10:25:23.602Z,1.8
2022-09-10T10:26:23.597Z,4.800000000000001
2022-09-10T10:27:23.597Z,6.7
2022-09-10T10:28:23.596Z,7.4
2022-09-10T10:29:23.601Z,4.3
2022-09-10T10:30:23.667Z,3.6
2022-09-10T10:31:23.681Z,3.3000000000000003
2022-09-10T10:32:23.597Z,8.1
2022-09-10T10:33:23.601Z,7.9
2022-09-10T10:34:23.606Z,7.300000000000001
2022-09-10T10:35:23.601Z,1.7000000000000002
2022-09-10T10:36:23.597Z,5.1000000000000005
2022-09-10T10:37:23.606Z,5
2022-09-10T10:38:23.606Z,3.4000000000000004
2022-09-10T10:39:23.619Z,4.6000000000000005
2022-09-10T10:40:23.625Z,4.5
2022-09-10T10:41:23.609Z,4.6000000000000005
2022-09-10T10:42:23.613Z,3
2022-09-10T10:43:23.612Z,4
2022-09-10T10:44:23.615Z,6.800000000000001
2022-09-10T10:45:23.609Z,11
2022-09-10T10:46:23.677Z,5.2
2022-09-10T10:47:23.612Z,6.6000000000000005
2022-09-10T10:48:23.615Z,2.5
2022-09-10T10:49:23.617Z,1.6
2022-09-10T10:50:23.613Z,1.8
2022-09-10T10:51:23.607Z,7.300000000000001
2022-09-10T10:52:23.613Z,6.7
2022-09-10T10:53:23.614Z,7.300000000000001
2022-09-10T10:54:23.611Z,6
2022-09-10T10:55:23.613Z,6.4
2022-09-10T10:56:23.614Z,5.300000000000001
2022-09-10T10:57:23.611Z,8.9
2022-09-10T10:58:23.619Z,4.800000000000001
2022-09-10T10:59:23.618Z,3.9000000000000004
2022-09-10T11:00:23.617Z,6.5
2022-09-10T11:01:23.705Z,4.7
2022-09-10T11:02:23.680Z,3.8000000000000003
2022-09-10T11:03:23.619Z,5.4
2022-09-10T11:04:23.622Z,2.8000000000000003
2022-09-10T11:05:23.616Z,5.6000000000000005
2022-09-10T11:06:23.618Z,6.5
2022-09-10T11:07:23.621Z,6.7
2022-09-10T11:08:23.616Z,3.9000000000000004
2022-09-10T11:09:23.622Z,4
2022-09-10T11:10:23.614Z,5.6000000000000005
2022-09-10T11:11:23.624Z,1.6
2022-09-10T11:12:23.622Z,2.1
2022-09-10T11:13:23.615Z,2.8000000000000003
2022-09-10T11:14:23.617Z,5.1000000000000005
2022-09-10T11:15:23.621Z,6.800000000000001
2022-09-10T11:16:23.615Z,2.9000000000000004
2022-09-10T11:17:23.622Z,5.300000000000001
2022-09-10T11:18:23.636Z,7.7
2022-09-10T11:19:23.618Z,3.9000000000000004
2022-09-10T11:20:28.786Z,4.800000000000001
2022-09-10T11:21:23.626Z,7.5
2022-09-10T11:22:23.623Z,6
2022-09-10T11:23:23.625Z,5.4
2022-09-10T11:24:23.626Z,4.9
2022-09-10T11:25:23.625Z,5.6000000000000005
2022-09-10T11:26:23.628Z,3.9000000000000004
2022-09-10T11:27:23.627Z,3.3000000000000003
2022-09-10T11:28:23.633Z,2.8000000000000003
2022-09-10T11:29:23.636Z,1.5
2022-09-10T11:30:23.631Z,7.9
2022-09-10T11:31:23.652Z,2.4000000000000004
2022-09-10T11:32:23.630Z,6.6000000000000005
2022-09-10T11:33:23.637Z,6.6000000000000005
2022-09-10T11:34:23.660Z,8.8
2022-09-10T11:35:23.641Z,6.7
2022-09-10T11:36:23.639Z,4.800000000000001
2022-09-10T11:37:23.640Z,5.5
2022-09-10T11:38:23.634Z,4.4
2022-09-10T11:39:23.638Z,7.300000000000001
2022-09-10T11:40:23.639Z,5.5
2022-09-10T11:41:23.639Z,3.4000000000000004
2022-09-10T11:42:23.710Z,4.2
2022-09-10T11:43:23.647Z,5.6000000000000005
2022-09-10T11:44:23.648Z,8.8
2022-09-10T11:45:23.648Z,6.7
2022-09-10T11:46:23.699Z,10.700000000000001
2022-09-10T11:47:23.659Z,9.8
2022-09-10T11:48:23.652Z,10.600000000000001
2022-09-10T11:49:23.650Z,6.9
2022-09-10T11:50:23.678Z,8.1
2022-09-10T11:51:23.668Z,6.800000000000001
2022-09-10T11:52:23.650Z,6
2022-09-10T11:53:23.654Z,11.700000000000001
2022-09-10T11:54:23.653Z,5.800000000000001
2022-09-10T11:55:23.646Z,6.4
2022-09-10T11:56:23.660Z,7.7
2022-09-10T11:57:23.664Z,13.700000000000001
2022-09-10T11:58:23.651Z,17.3
2022-09-10T11:59:23.653Z,12
2022-09-10T12:00:23.657Z,11.600000000000001
2022-09-10T12:01:23.664Z,8.5
2022-09-10T12:02:23.713Z,14.9
2022-09-10T12:03:23.688Z,11.700000000000001
2022-09-10T12:04:23.661Z,13.3
2022-09-10T12:05:23.661Z,12.200000000000001
2022-09-10T12:06:23.684Z,14.600000000000001
2022-09-10T12:07:23.666Z,12.700000000000001
2022-09-10T12:08:23.668Z,3.1
2022-09-10T12:09:23.661Z,7.1000000000000005
2022-09-10T12:10:23.657Z,11.8
2022-09-10T12:11:23.666Z,10.700000000000001
2022-09-10T12:12:23.665Z,8.700000000000001
2022-09-10T12:13:23.673Z,10
2022-09-10T12:14:23.674Z,6.300000000000001
2022-09-10T12:15:23.678Z,9.4
2022-09-10T12:16:23.671Z,9.3
2022-09-10T12:17:23.679Z,14.3
2022-09-10T12:18:23.673Z,17.3
2022-09-10T12:19:23.684Z,11
2022-09-10T12:20:23.668Z,8.700000000000001
2022-09-10T12:21:23.680Z,8.700000000000001
2022-09-10T12:22:23.697Z,10.3
2022-09-10T12:23:23.678Z,9.8
2022-09-10T12:24:23.684Z,8.200000000000001
2022-09-10T12:25:23.683Z,11.700000000000001
2022-09-10T12:26:23.676Z,14.200000000000001
2022-09-10T12:27:23.679Z,14.3
2022-09-10T12:28:23.678Z,26.5
2022-09-10T12:29:23.678Z,20.200000000000003
2022-09-10T12:30:23.681Z,21
2022-09-10T12:31:23.746Z,22.700000000000003
2022-09-10T12:32:23.687Z,26.5
2022-09-10T12:33:23.689Z,21.1
2022-09-10T12:34:23.686Z,17.900000000000002
2022-09-10T12:35:23.698Z,25.6
2022-09-10T12:36:23.688Z,27.6
2022-09-10T12:37:23.695Z,39.7
2022-09-10T12:38:23.713Z,29.6
2022-09-10T12:39:23.692Z,15.200000000000001
2022-09-10T12:40:23.689Z,29
2022-09-10T12:41:23.692Z,21.400000000000002
2022-09-10T12:42:23.695Z,21.400000000000002
2022-09-10T12:43:23.702Z,32.7
2022-09-10T12:44:23.697Z,23.8
2022-09-10T12:45:23.699Z,24.900000000000002
2022-09-10T12:46:23.737Z,30.5
2022-09-10T12:47:23.694Z,21.900000000000002
2022-09-10T12:48:26.883Z,17.6
2022-09-10T12:49:23.706Z,8.1
2022-09-10T12:50:23.704Z,12.9
2022-09-10T12:51:23.700Z,9.200000000000001
2022-09-10T12:52:23.707Z,15.5
2022-09-10T12:53:23.706Z,8.9
2022-09-10T12:54:23.726Z,16.2
2022-09-10T12:55:23.707Z,5.7